Time;durP1;ratioP1;P1;durP2;ratioP2;P2;SDS_P1;SDS_P2;PMS_P1;PMS_P2;Temp;Humidity;BMP_temperature;BMP_pressure;BME280_temperature;BME280_humidity;BME280_pressure;Samples;Min_cycle;Max_cycle;Signal;HPM_P1;HPM_P2
2023/12/14 00:01:13;;;;;;;5.03;3.05;;;;;;;18.98;46.34;100747.13;5069036;28;20075;-69
2023/12/14 00:03:42;;;;;;;4.93;2.90;;;;;;;19.00;46.43;100752.28;5068699;28;20476;-68
2023/12/14 00:06:08;;;;;;;4.28;2.60;;;;;;;19.05;46.49;100773.84;5068977;28;20078;-68
2023/12/14 00:08:33;;;;;;;5.07;2.58;;;;;;;18.94;46.34;100764.19;5069266;28;20025;-68
2023/12/14 00:11:04;;;;;;;5.60;2.50;;;;;;;18.99;46.52;100772.56;5067808;28;20031;-67
2023/12/14 00:13:29;;;;;;;3.97;2.30;;;;;;;19.02;46.45;100782.84;5068943;28;20031;-68
2023/12/14 00:15:54;;;;;;;4.07;2.30;;;;;;;18.94;46.21;100774.75;5068698;28;21192;-69
2023/12/14 00:18:19;;;;;;;4.30;2.30;;;;;;;19.00;46.17;100794.53;5068911;28;20745;-68
2023/12/14 00:20:45;;;;;;;5.27;2.67;;;;;;;18.95;45.85;100794.94;5069015;28;21294;-68
2023/12/14 00:23:10;;;;;;;4.80;2.50;;;;;;;18.89;46.03;100791.97;5069027;28;20757;-67
2023/12/14 00:25:35;;;;;;;4.75;2.50;;;;;;;18.96;46.21;100814.25;5068289;28;20258;-68
2023/12/14 00:28:00;;;;;;;3.97;2.10;;;;;;;18.93;46.33;100815.34;5068976;28;20477;-68
2023/12/14 00:30:26;;;;;;;4.97;1.95;;;;;;;18.91;45.91;100822.56;5069059;28;20264;-68
2023/12/14 00:32:51;;;;;;;4.03;2.40;;;;;;;18.78;46.06;100803.41;5068743;28;20115;-68
2023/12/14 00:35:16;;;;;;;4.20;2.55;;;;;;;18.93;45.75;100835.63;5068295;28;20035;-69
2023/12/14 00:37:41;;;;;;;4.88;2.53;;;;;;;18.91;46.02;100841.03;5068434;28;20039;-68
2023/12/14 00:40:07;;;;;;;4.43;2.30;;;;;;;18.80;46.10;100849.84;5068984;28;20590;-69
2023/12/14 00:42:33;;;;;;;4.30;2.20;;;;;;;18.83;46.14;100860.16;5067473;28;20239;-69
2023/12/14 00:44:58;;;;;;;3.80;2.15;;;;;;;18.78;45.99;100857.03;5068529;28;20524;-69
2023/12/14 00:47:23;;;;;;;4.03;2.30;;;;;;;18.82;46.00;100860.28;5067776;28;20055;-68
2023/12/14 00:49:48;;;;;;;4.55;2.10;;;;;;;18.87;45.73;100878.38;5068534;28;20028;-69
2023/12/14 00:52:14;;;;;;;4.50;2.33;;;;;;;18.80;45.83;100875.41;5068181;28;20036;-69
2023/12/14 00:54:39;;;;;;;4.60;2.30;;;;;;;18.75;45.65;100869.66;5068083;28;20048;-69
2023/12/14 00:57:04;;;;;;;4.03;2.30;;;;;;;18.82;45.76;100884.88;5068465;28;20082;-69
2023/12/14 00:59:29;;;;;;;4.88;2.78;;;;;;;18.82;45.78;100892.81;5068115;28;20035;-68
2023/12/14 01:01:55;;;;;;;4.28;2.20;;;;;;;18.76;45.58;100881.91;5066977;28;20083;-70
2023/12/14 01:04:20;;;;;;;4.35;2.33;;;;;;;18.81;45.58;100900.84;5067200;28;20390;-68
2023/12/14 01:06:45;;;;;;;3.90;2.38;;;;;;;18.79;45.67;100895.69;5068786;28;20056;-68
2023/12/14 01:09:11;;;;;;;3.95;2.33;;;;;;;18.77;45.61;100897.63;5068585;28;20083;-69
2023/12/14 01:11:36;;;;;;;3.35;2.08;;;;;;;18.70;45.31;100893.81;5068334;28;20071;-69
2023/12/14 01:14:01;;;;;;;4.00;2.30;;;;;;;18.76;45.30;100906.50;5068141;28;20119;-69
2023/12/14 01:16:27;;;;;;;4.60;2.33;;;;;;;18.70;45.37;100901.72;5068174;28;20266;-68
2023/12/14 01:18:52;;;;;;;5.82;2.78;;;;;;;18.66;45.30;100905.59;5068343;28;20139;-68
2023/12/14 01:21:17;;;;;;;4.05;2.42;;;;;;;18.75;45.56;100927.75;5067623;28;20054;-69
2023/12/14 01:23:43;;;;;;;4.27;2.33;;;;;;;18.67;45.67;100917.81;5067720;28;20186;-68
2023/12/14 01:26:09;;;;;;;4.45;2.42;;;;;;;18.68;45.13;100938.00;5067910;28;20273;-69
2023/12/14 01:28:34;;;;;;;4.18;2.33;;;;;;;18.68;45.27;100943.25;5068050;28;20109;-68
2023/12/14 01:30:59;;;;;;;4.00;2.20;;;;;;;18.67;45.13;100947.72;5067640;28;20029;-68
2023/12/14 01:33:24;;;;;;;3.70;2.10;;;;;;;18.60;45.19;100938.59;5067441;28;20032;-69
2023/12/14 01:35:50;;;;;;;4.28;2.13;;;;;;;18.66;45.14;100955.75;5067516;28;20419;-68
2023/12/14 01:38:15;;;;;;;4.27;2.10;;;;;;;18.68;45.00;100965.22;5067515;28;20140;-68
2023/12/14 01:40:40;;;;;;;4.30;2.47;;;;;;;18.59;44.91;100954.56;5067483;28;20660;-69
2023/12/14 01:43:08;;;;;;;3.83;2.15;;;;;;;18.59;44.84;100963.31;5067164;28;20060;-70
2023/12/14 01:45:33;;;;;;;3.85;2.03;;;;;;;18.65;44.95;100972.56;5067558;28;20040;-69
2023/12/14 01:47:58;;;;;;;5.05;2.20;;;;;;;18.62;44.96;100978.91;5067444;28;20102;-68
2023/12/14 01:50:23;;;;;;;4.17;2.10;;;;;;;18.63;45.00;100985.88;5067125;28;20032;-69
2023/12/14 01:52:49;;;;;;;3.73;2.13;;;;;;;18.61;44.87;100982.53;5067126;28;20261;-68
2023/12/14 01:55:14;;;;;;;3.60;2.20;;;;;;;18.59;44.84;100986.25;5065122;28;20629;-69
2023/12/14 01:57:39;;;;;;;4.05;2.40;;;;;;;18.55;44.70;100984.81;5067373;28;20052;-69
2023/12/14 02:00:05;;;;;;;4.13;2.10;;;;;;;18.44;44.65;100973.31;5066234;28;20024;-69
2023/12/14 02:02:31;;;;;;;3.80;2.10;;;;;;;18.61;44.73;101005.44;5066354;28;20028;-69
2023/12/14 02:04:56;;;;;;;3.87;2.27;;;;;;;18.53;44.69;101000.75;5066757;28;20036;-69
2023/12/14 02:07:21;;;;;;;4.40;2.13;;;;;;;18.52;44.65;101004.38;5066718;28;20307;-70
2023/12/14 02:09:46;;;;;;;4.05;2.28;;;;;;;18.49;44.80;101005.47;5067032;28;20036;-69
2023/12/14 02:12:12;;;;;;;3.75;2.22;;;;;;;18.58;44.71;101018.88;5067163;28;20690;-69
2023/12/14 02:14:37;;;;;;;3.75;2.05;;;;;;;18.56;44.65;101026.09;5066586;28;20035;-69
2023/12/14 02:17:02;;;;;;;4.07;2.17;;;;;;;18.54;44.58;101034.13;5066930;28;20041;-69
2023/12/14 02:19:28;;;;;;;3.30;1.83;;;;;;;18.54;44.60;101039.41;5066340;28;20269;-69
2023/12/14 02:21:53;;;;;;;3.87;2.00;;;;;;;18.47;44.64;101036.41;5066524;28;20032;-68
2023/12/14 02:24:18;;;;;;;2.88;1.73;;;;;;;18.54;44.59;101054.41;5066693;28;20288;-69
2023/12/14 02:26:43;;;;;;;4.07;1.88;;;;;;;18.49;44.67;101045.03;5066238;28;20040;-70
2023/12/14 02:29:09;;;;;;;3.60;1.90;;;;;;;18.45;44.41;101045.41;5066765;28;20042;-68
2023/12/14 02:31:34;;;;;;;3.58;1.75;;;;;;;18.41;44.49;101036.91;5066756;28;20033;-69
2023/12/14 02:33:59;;;;;;;3.35;1.80;;;;;;;18.51;44.26;101052.00;5066291;28;20043;-70
2023/12/14 02:36:25;;;;;;;3.30;1.90;;;;;;;18.44;44.38;101051.66;5066501;28;20107;-70
2023/12/14 02:38:50;;;;;;;3.60;1.90;;;;;;;18.42;44.30;101054.41;5066626;28;20261;-67
2023/12/14 02:41:15;;;;;;;3.78;2.10;;;;;;;18.48;44.33;101068.91;5066564;28;20037;-68
2023/12/14 02:43:40;;;;;;;3.38;1.80;;;;;;;18.46;44.27;101070.84;5065885;28;20040;-69
2023/12/14 02:46:06;;;;;;;3.60;1.90;;;;;;;18.40;44.21;101072.16;5066437;28;20091;-69
2023/12/14 02:48:31;;;;;;;3.67;2.08;;;;;;;18.45;44.25;101095.53;5065785;28;20033;-68
2023/12/14 02:50:57;;;;;;;3.53;1.80;;;;;;;18.39;44.00;101083.69;5066219;28;20482;-68
2023/12/14 02:53:22;;;;;;;3.90;2.28;;;;;;;18.44;43.92;101101.81;5065952;28;20033;-70
2023/12/14 02:55:47;;;;;;;3.83;2.22;;;;;;;18.43;44.24;101098.31;5066732;28;20027;-68
2023/12/14 02:58:13;;;;;;;3.92;2.00;;;;;;;18.36;44.14;101086.56;5065986;28;20032;-68
2023/12/14 03:00:38;;;;;;;3.78;2.20;;;;;;;18.28;44.15;101081.06;5066057;28;20066;-67
2023/12/14 03:03:03;;;;;;;3.80;2.10;;;;;;;18.40;43.93;101105.63;5064380;28;20080;-69
2023/12/14 03:05:28;;;;;;;4.03;2.17;;;;;;;18.42;43.97;101111.63;5066043;28;20393;-68
2023/12/14 03:07:54;;;;;;;3.70;2.10;;;;;;;18.32;44.10;101100.94;5065995;28;20264;-68
2023/12/14 03:10:19;;;;;;;3.53;1.90;;;;;;;18.41;43.86;101120.50;5066031;28;20269;-69
2023/12/14 03:12:44;;;;;;;3.50;1.98;;;;;;;18.38;44.13;101121.59;5066223;28;20028;-69
2023/12/14 03:15:10;;;;;;;3.88;2.15;;;;;;;18.39;43.85;101132.97;5066020;28;20037;-69
2023/12/14 03:17:35;;;;;;;4.60;2.20;;;;;;;18.31;43.82;101117.75;5066194;28;20063;-69
2023/12/14 03:20:00;;;;;;;4.10;2.00;;;;;;;18.39;43.87;101131.19;5065892;28;20028;-69
2023/12/14 03:22:26;;;;;;;3.17;1.75;;;;;;;18.31;43.81;101115.13;5065804;28;20609;-68
2023/12/14 03:24:51;;;;;;;3.47;1.80;;;;;;;18.28;43.96;101120.63;5066170;28;20449;-69
2023/12/14 03:27:16;;;;;;;3.22;1.75;;;;;;;18.34;43.70;101127.22;5065978;28;20036;-69
2023/12/14 03:29:41;;;;;;;3.77;2.17;;;;;;;18.32;43.55;101129.97;5065817;28;20028;-68
2023/12/14 03:32:07;;;;;;;3.30;1.60;;;;;;;18.36;43.93;101133.19;5066057;28;20330;-69
2023/12/14 03:34:32;;;;;;;3.22;1.90;;;;;;;18.27;43.91;101127.69;5066083;28;20266;-68
2023/12/14 03:36:57;;;;;;;3.90;2.03;;;;;;;18.34;43.93;101138.63;5065468;28;20033;-69
2023/12/14 03:39:22;;;;;;;4.07;2.00;;;;;;;18.28;43.70;101120.63;5065776;28;20492;-69
2023/12/14 03:41:48;;;;;;;4.70;1.90;;;;;;;18.34;43.88;101141.25;5065839;28;20110;-69
2023/12/14 03:44:13;;;;;;;3.03;1.70;;;;;;;18.33;43.68;101144.03;5066066;28;20064;-69
2023/12/14 03:46:38;;;;;;;4.10;2.13;;;;;;;18.34;43.72;101145.69;5065132;28;20057;-68
2023/12/14 03:49:04;;;;;;;3.90;2.25;;;;;;;18.31;43.82;101144.13;5066105;28;20058;-69
2023/12/14 03:51:29;;;;;;;3.42;1.83;;;;;;;18.31;43.81;101152.06;5065695;28;20032;-69
2023/12/14 03:53:55;;;;;;;3.47;1.95;;;;;;;18.25;43.70;101149.88;5065834;28;20123;-69
2023/12/14 03:56:20;;;;;;;3.85;2.10;;;;;;;18.30;43.65;101158.28;5065486;28;20021;-69
2023/12/14 03:58:45;;;;;;;3.63;2.00;;;;;;;18.29;43.55;101162.72;5065779;28;20031;-69
2023/12/14 04:01:23;;;;;;;3.38;1.88;;;;;;;18.29;43.56;101165.38;5065891;28;20075;-68
2023/12/14 04:03:48;;;;;;;3.38;1.80;;;;;;;18.30;43.44;101166.19;5063605;28;20123;-69
2023/12/14 04:06:15;;;;;;;3.60;1.92;;;;;;;18.31;43.46;101170.53;5064785;28;20040;-68
2023/12/14 04:08:41;;;;;;;3.75;1.88;;;;;;;18.22;43.73;101165.94;5065661;28;20081;-69
2023/12/14 04:11:07;;;;;;;3.78;1.95;;;;;;;18.23;43.31;101164.97;5065747;28;20044;-69
2023/12/14 04:13:33;;;;;;;3.70;1.90;;;;;;;18.29;43.45;101164.50;5065332;28;20033;-68
2023/12/14 04:15:58;;;;;;;3.88;1.98;;;;;;;18.28;43.31;101168.13;5065670;28;21452;-69
2023/12/14 04:18:24;;;;;;;3.80;1.85;;;;;;;18.20;43.31;101160.78;5068354;28;20074;-68
2023/12/14 04:20:49;;;;;;;4.10;2.00;;;;;;;18.20;43.53;101168.69;5069142;28;20062;-69
2023/12/14 04:23:14;;;;;;;3.90;1.90;;;;;;;18.18;43.41;101169.75;5068380;28;20107;-68
2023/12/14 04:25:40;;;;;;;3.08;1.90;;;;;;;18.16;43.28;101169.88;5069089;28;20633;-68
2023/12/14 04:28:05;;;;;;;3.80;2.00;;;;;;;18.24;43.60;101200.97;5068328;28;20028;-69
2023/12/14 04:30:30;;;;;;;3.80;1.88;;;;;;;18.16;43.45;101190.16;5068804;28;20036;-69
2023/12/14 04:32:56;;;;;;;3.50;2.00;;;;;;;18.22;43.21;101213.44;5068236;28;20060;-68
2023/12/14 04:35:22;;;;;;;3.13;1.83;;;;;;;18.22;43.37;101213.44;5050661;28;20178;-69
2023/12/14 04:37:48;;;;;;;3.97;2.22;;;;;;;18.20;43.13;101215.31;5068462;28;20024;-70
2023/12/14 04:40:13;;;;;;;3.63;2.00;;;;;;;18.22;43.17;101224.81;5068383;28;20047;-69
2023/12/14 04:42:38;;;;;;;3.45;1.92;;;;;;;18.19;43.42;101229.50;5068686;28;20050;-69
2023/12/14 04:45:04;;;;;;;3.55;1.90;;;;;;;18.20;43.13;101239.94;5069079;28;20572;-69
2023/12/14 04:47:30;;;;;;;3.70;2.00;;;;;;;18.15;43.25;101246.50;5068414;28;20130;-68
2023/12/14 04:49:55;;;;;;;3.35;2.00;;;;;;;18.21;43.32;101261.88;5068501;28;20050;-69
2023/12/14 04:52:20;;;;;;;3.92;1.98;;;;;;;18.18;43.02;101259.44;5068372;28;20028;-68
2023/12/14 04:54:45;;;;;;;3.77;2.10;;;;;;;18.19;42.75;101259.34;5068183;28;20460;-68
2023/12/14 04:57:11;;;;;;;3.60;2.03;;;;;;;18.13;43.21;101252.75;5068531;28;20257;-70
2023/12/14 04:59:36;;;;;;;3.27;1.73;;;;;;;18.15;43.14;101259.69;5068175;28;20480;-69
2023/12/14 05:02:02;;;;;;;3.67;1.93;;;;;;;18.17;42.93;101265.72;5066682;28;20285;-69
2023/12/14 05:04:27;;;;;;;3.47;1.90;;;;;;;18.15;43.15;101270.22;5067964;28;20265;-68
2023/12/14 05:06:52;;;;;;;3.38;1.88;;;;;;;18.08;43.02;101270.69;5068156;28;20229;-68
2023/12/14 05:09:18;;;;;;;3.17;1.75;;;;;;;18.16;43.13;101285.13;5067958;28;20103;-67
2023/12/14 05:11:43;;;;;;;5.65;2.28;;;;;;;18.12;43.12;101284.50;5068360;28;20033;-69
2023/12/14 05:14:08;;;;;;;3.67;1.80;;;;;;;18.10;42.94;101291.69;5068059;28;20428;-69
2023/12/14 05:16:34;;;;;;;4.03;1.92;;;;;;;18.09;43.20;101292.66;5066903;28;20106;-68
2023/12/14 05:18:59;;;;;;;3.70;2.13;;;;;;;18.13;43.08;101309.91;5067998;28;20465;-68
2023/12/14 05:21:24;;;;;;;3.20;1.90;;;;;;;18.14;43.14;101316.88;5068388;28;20072;-68
2023/12/14 05:23:49;;;;;;;3.97;2.15;;;;;;;18.07;43.05;101303.31;5067622;28;20036;-68
2023/12/14 05:26:15;;;;;;;4.05;2.17;;;;;;;18.13;42.94;101323.97;5067530;28;20210;-68
2023/12/14 05:28:40;;;;;;;3.65;2.10;;;;;;;18.08;42.98;101312.06;5067379;28;20036;-69
2023/12/14 05:31:06;;;;;;;3.10;1.90;;;;;;;18.03;42.83;101311.56;5067887;28;20028;-70
2023/12/14 05:33:33;;;;;;;3.60;2.00;;;;;;;18.12;42.75;101326.72;5067474;28;20078;-68
2023/12/14 05:35:59;;;;;;;3.60;2.08;;;;;;;18.11;42.91;101338.22;5067283;28;20039;-67
2023/12/14 05:38:24;;;;;;;3.90;2.30;;;;;;;18.05;42.92;101336.84;5067631;28;20404;-70
2023/12/14 05:40:49;;;;;;;3.30;1.83;;;;;;;18.02;42.73;101339.72;5067826;28;20071;-69
2023/12/14 05:43:18;;;;;;;3.58;1.95;;;;;;;18.05;43.06;101352.69;5067016;28;20131;-67
2023/12/14 05:45:43;;;;;;;4.07;2.08;;;;;;;18.04;42.92;101353.66;5067128;28;20138;-69
2023/12/14 05:48:08;;;;;;;3.38;1.95;;;;;;;18.01;42.99;101356.50;5065848;28;20415;-69
2023/12/14 05:50:33;;;;;;;3.75;2.10;;;;;;;18.08;42.90;101385.91;5066537;28;20033;-69
2023/12/14 05:52:59;;;;;;;3.28;1.80;;;;;;;17.99;42.69;101378.66;5067228;28;20469;-69
2023/12/14 05:55:24;;;;;;;3.83;1.98;;;;;;;17.98;42.85;101374.34;5066952;28;20032;-68
2023/12/14 05:57:50;;;;;;;3.58;2.22;;;;;;;17.99;42.79;101391.84;5066968;28;20036;-69
2023/12/14 06:00:15;;;;;;;3.60;2.13;;;;;;;18.00;43.02;101397.00;5066541;28;20033;-68
2023/12/14 06:02:41;;;;;;;4.07;2.40;;;;;;;17.98;42.92;101392.81;5065523;28;20028;-69
2023/12/14 06:05:07;;;;;;;3.70;1.85;;;;;;;18.00;42.91;101394.38;5066613;28;20035;-69
2023/12/14 06:07:33;;;;;;;3.20;1.70;;;;;;;18.06;42.99;101406.28;5066168;28;20073;-69
2023/12/14 06:09:58;;;;;;;3.30;1.58;;;;;;;18.08;43.04;101402.56;5067187;28;20474;-68
2023/12/14 06:12:23;;;;;;;2.67;1.30;;;;;;;18.04;43.40;101401.13;5067098;28;20256;-70
2023/12/14 06:14:49;;;;;;;2.83;1.60;;;;;;;18.12;43.23;101400.56;5066984;28;20465;-69
2023/12/14 06:17:15;;;;;;;3.03;1.48;;;;;;;18.13;43.37;101412.78;5066209;28;20265;-70
2023/12/14 06:19:41;;;;;;;2.75;1.35;;;;;;;18.12;43.36;101405.84;5066743;28;20046;-69
2023/12/14 06:22:06;;;;;;;3.00;1.50;;;;;;;18.17;43.73;101419.53;5066413;28;20090;-68
2023/12/14 06:24:31;;;;;;;2.83;1.45;;;;;;;18.17;43.70;101423.97;5066649;28;20033;-68
2023/12/14 06:26:56;;;;;;;2.50;1.20;;;;;;;18.27;43.59;101438.19;5065925;28;20044;-68
2023/12/14 06:29:22;;;;;;;2.20;1.10;;;;;;;18.25;43.64;101433.00;5067002;28;20472;-69
2023/12/14 06:31:47;;;;;;;2.20;1.23;;;;;;;18.28;43.51;101434.59;5066671;28;20310;-69
2023/12/14 06:34:12;;;;;;;2.00;1.08;;;;;;;18.27;43.51;101433.75;5047877;28;20032;-69
2023/12/14 06:36:42;;;;;;;1.88;1.00;;;;;;;18.40;43.80;101456.59;5067051;28;20040;-69
2023/12/14 06:39:07;;;;;;;2.28;1.05;;;;;;;18.35;43.68;101445.53;5066102;28;20059;-68
2023/12/14 06:41:33;;;;;;;2.53;1.13;;;;;;;18.45;43.40;101465.03;5065550;28;20118;-70
2023/12/14 06:43:58;;;;;;;1.67;0.90;;;;;;;18.45;43.62;101457.97;5065792;28;20037;-68
2023/12/14 06:46:23;;;;;;;2.28;1.05;;;;;;;18.39;43.59;101455.78;5041666;28;20087;-69
2023/12/14 06:48:49;;;;;;;1.73;1.00;;;;;;;18.43;43.58;101459.84;5065728;28;20037;-68
2023/12/14 06:51:14;;;;;;;2.28;1.00;;;;;;;18.51;43.33;101476.94;5065323;28;20439;-69
2023/12/14 06:53:41;;;;;;;2.65;1.25;;;;;;;18.54;43.54;101482.00;5065503;28;20131;-70
2023/12/14 06:56:11;;;;;;;1.50;0.85;;;;;;;18.47;43.45;101465.78;5063600;28;20532;-69
2023/12/14 06:58:44;;;;;;;2.33;1.13;;;;;;;18.52;43.20;101476.81;5065057;28;20500;-69
2023/12/14 07:01:14;;;;;;;2.47;1.35;;;;;;;18.57;43.33;101492.34;5063445;28;20036;-70
2023/12/14 07:03:41;;;;;;;3.08;1.30;;;;;;;18.50;43.04;101481.38;5063500;28;20083;-69
2023/12/14 07:06:07;;;;;;;2.92;1.40;;;;;;;18.57;43.04;101494.97;5065446;28;20393;-68
2023/12/14 07:08:32;;;;;;;3.30;1.40;;;;;;;18.57;43.18;101494.97;5066134;28;20036;-69
2023/12/14 07:10:57;;;;;;;3.23;1.50;;;;;;;18.57;43.17;101501.09;5065725;28;20032;-67
2023/12/14 07:13:23;;;;;;;3.92;1.70;;;;;;;18.51;43.04;101493.59;5066200;28;20706;-67
2023/12/14 07:15:48;;;;;;;3.08;1.60;;;;;;;18.55;43.18;101505.66;5065342;28;20139;-68
2023/12/14 07:18:14;;;;;;;3.70;1.60;;;;;;;18.59;43.41;101519.44;5065424;28;20032;-69
2023/12/14 07:20:39;;;;;;;3.97;1.55;;;;;;;18.59;43.25;101532.66;5066018;28;20111;-69
2023/12/14 07:23:04;;;;;;;3.35;1.60;;;;;;;18.54;43.27;101532.97;5065151;28;20471;-69
2023/12/14 07:25:30;;;;;;;3.40;1.55;;;;;;;18.58;43.20;101536.25;5065573;28;20039;-68
2023/12/14 07:27:55;;;;;;;3.45;1.70;;;;;;;18.55;43.16;101539.97;5065657;28;20135;-68
2023/12/14 07:30:20;;;;;;;3.33;1.40;;;;;;;18.53;42.95;101543.66;5065846;28;20028;-68
2023/12/14 07:32:46;;;;;;;3.17;1.60;;;;;;;18.52;43.21;101548.09;5064892;28;20047;-69
2023/12/14 07:35:11;;;;;;;4.07;1.50;;;;;;;18.52;43.27;101553.38;5065658;28;20036;-69
2023/12/14 07:37:36;;;;;;;3.92;1.70;;;;;;;18.53;43.20;101552.41;5064930;28;20048;-68
2023/12/14 07:40:03;;;;;;;3.40;1.58;;;;;;;18.61;43.39;101572.97;5065324;28;20103;-69
2023/12/14 07:42:28;;;;;;;4.38;1.88;;;;;;;18.53;43.36;101554.22;5064112;28;20032;-69
2023/12/14 07:44:54;;;;;;;3.42;1.63;;;;;;;18.55;43.44;101562.84;5065405;28;20621;-69
2023/12/14 07:47:19;;;;;;;3.03;1.50;;;;;;;18.57;43.59;101560.97;5065615;28;20056;-69
2023/12/14 07:49:45;;;;;;;3.30;1.50;;;;;;;18.62;43.64;101578.16;5065495;28;20453;-69
2023/12/14 07:52:11;;;;;;;3.83;1.60;;;;;;;18.57;43.87;101568.88;5040350;28;20083;-69
2023/12/14 07:54:36;;;;;;;4.35;2.00;;;;;;;18.59;43.61;101575.72;5085502;28;20524;-68
2023/12/14 07:57:02;;;;;;;3.72;1.63;;;;;;;18.54;43.85;101579.66;5088968;28;20028;-69
2023/12/14 07:59:29;;;;;;;4.00;1.75;;;;;;;18.55;43.81;101587.47;5086919;28;20465;-67
2023/12/14 08:01:54;;;;;;;4.35;1.80;;;;;;;18.54;43.81;101592.88;5086173;28;20510;-68
2023/12/14 08:04:20;;;;;;;4.23;1.57;;;;;;;18.62;43.93;101609.81;5085615;28;20038;-71
2023/12/14 08:06:45;;;;;;;4.18;2.10;;;;;;;18.54;43.62;101595.50;5089701;28;20257;-70
2023/12/14 08:09:10;;;;;;;5.03;1.83;;;;;;;18.62;43.70;101614.28;5088997;28;20541;-68
2023/12/14 08:11:36;;;;;;;4.03;1.70;;;;;;;18.61;43.53;101613.44;5088173;28;20031;-68
2023/12/14 08:14:02;;;;;;;6.18;2.13;;;;;;;18.61;43.73;101618.72;5089130;28;20055;-68
2023/12/14 08:16:28;;;;;;;3.42;1.60;;;;;;;18.60;43.67;101611.75;5089223;28;20121;-68
2023/12/14 08:18:53;;;;;;;4.25;1.75;;;;;;;18.54;43.82;101608.69;5089112;28;20158;-68
2023/12/14 08:21:18;;;;;;;4.15;1.63;;;;;;;18.56;44.38;101615.53;5086530;28;20051;-69
2023/12/14 08:23:44;;;;;;;8.27;2.25;;;;;;;18.64;45.21;101636.13;5088680;28;20411;-70
2023/12/14 08:26:11;;;;;;;4.45;1.90;;;;;;;18.65;45.41;101646.56;5087809;28;20145;-68
2023/12/14 08:28:36;;;;;;;4.68;2.17;;;;;;;18.66;45.38;101652.72;5088480;28;20360;-69
2023/12/14 08:31:03;;;;;;;6.28;2.45;;;;;;;18.66;45.44;101653.56;5087712;28;20896;-69
2023/12/14 08:33:28;;;;;;;4.93;1.90;;;;;;;18.65;45.29;101656.31;5088594;28;20032;-68
2023/12/14 08:35:54;;;;;;;5.00;2.00;;;;;;;18.58;45.52;101647.09;5088448;28;20089;-68
2023/12/14 08:38:19;;;;;;;5.38;2.60;;;;;;;18.63;45.62;101655.56;5089062;28;20085;-69
2023/12/14 08:40:45;;;;;;;4.57;1.77;;;;;;;18.61;45.54;101652.19;5088306;28;20029;-69
2023/12/14 08:43:10;;;;;;;6.43;2.47;;;;;;;18.57;45.54;101667.41;5088249;28;20453;-69
2023/12/14 08:45:36;;;;;;;5.82;2.38;;;;;;;18.60;45.47;101672.47;5088917;28;20024;-69
2023/12/14 08:48:01;;;;;;;6.88;2.22;;;;;;;18.66;45.33;101687.03;5083921;28;20052;-69
2023/12/14 08:50:26;;;;;;;6.03;2.00;;;;;;;18.67;45.62;101689.56;5087237;28;20035;-69
2023/12/14 08:52:52;;;;;;;5.47;2.10;;;;;;;18.63;45.64;101682.81;5087424;28;20392;-70
2023/12/14 08:55:18;;;;;;;5.68;2.10;;;;;;;18.71;45.52;101692.84;5088030;28;20028;-69
2023/12/14 08:57:43;;;;;;;4.55;1.95;;;;;;;18.61;45.22;101666.25;5082626;28;20085;-70
2023/12/14 09:00:09;;;;;;;5.50;2.17;;;;;;;18.74;45.12;101694.41;5080837;28;20031;-70
2023/12/14 09:02:35;;;;;;;4.57;2.05;;;;;;;18.73;45.08;101695.38;5085233;28;20143;-72
2023/12/14 09:05:00;;;;;;;4.82;1.85;;;;;;;18.74;45.00;101692.63;5082384;28;20038;-69
2023/12/14 09:07:25;;;;;;;6.03;2.08;;;;;;;18.74;45.03;101697.03;5085625;28;20024;-71
2023/12/14 09:09:51;;;;;;;4.95;2.20;;;;;;;18.71;44.89;101700.75;5086488;28;20032;-71
2023/12/14 09:12:16;;;;;;;5.70;2.05;;;;;;;18.73;44.74;101717.31;5086792;28;20032;-70
2023/12/14 09:14:41;;;;;;;5.57;1.75;;;;;;;18.70;44.76;101722.00;5087064;28;20123;-69
2023/12/14 09:17:07;;;;;;;4.22;1.70;;;;;;;18.63;44.58;101708.38;5086734;28;20517;-69
2023/12/14 09:19:32;;;;;;;4.70;1.88;;;;;;;18.63;44.58;101717.13;5087323;28;20024;-70
2023/12/14 09:21:58;;;;;;;5.20;2.00;;;;;;;18.64;44.69;101724.09;5086909;28;20046;-69
2023/12/14 09:24:24;;;;;;;4.13;1.85;;;;;;;18.66;44.59;101732.75;5086499;28;20040;-69
2023/12/14 09:26:49;;;;;;;4.65;1.95;;;;;;;18.68;44.07;101741.41;5086444;28;20074;-70
2023/12/14 09:29:15;;;;;;;3.95;1.63;;;;;;;18.74;44.49;101756.00;5086944;28;20077;-68
2023/12/14 09:31:42;;;;;;;3.40;1.50;;;;;;;18.73;44.58;101753.47;5086379;28;20035;-69
2023/12/14 09:34:10;;;;;;;3.90;1.67;;;;;;;18.64;44.75;101753.16;5086640;28;20123;-68
2023/12/14 09:36:35;;;;;;;3.20;1.35;;;;;;;18.74;44.40;101771.84;5087420;28;20460;-69
2023/12/14 09:39:01;;;;;;;3.70;1.33;;;;;;;18.74;44.49;101777.13;5087490;28;20035;-69
2023/12/14 09:41:26;;;;;;;4.28;1.40;;;;;;;18.75;44.63;101780.59;5087401;28;20111;-67
2023/12/14 09:43:52;;;;;;;3.80;1.70;;;;;;;18.65;44.46;101765.38;5083870;28;20081;-68
2023/12/14 09:46:18;;;;;;;3.55;1.30;;;;;;;18.71;44.62;101776.47;5082441;28;20534;-69
2023/12/14 09:48:44;;;;;;;4.75;1.60;;;;;;;18.65;44.42;101780.38;5085248;28;20119;-69
2023/12/14 09:51:11;;;;;;;2.85;1.30;;;;;;;18.74;44.55;101790.31;5086433;28;20071;-69
2023/12/14 09:53:37;;;;;;;4.63;1.50;;;;;;;18.67;44.42;101784.63;5077488;28;20028;-71
2023/12/14 09:56:02;;;;;;;3.90;1.80;;;;;;;18.74;44.26;101797.38;5067021;28;20025;-68
2023/12/14 09:58:32;;;;;;;4.55;1.50;;;;;;;18.74;44.26;101806.16;5067256;28;20025;-68
2023/12/14 10:00:59;;;;;;;3.58;1.50;;;;;;;18.75;44.19;101809.63;5067124;28;20350;-70
2023/12/14 10:03:28;;;;;;;4.50;1.55;;;;;;;18.65;43.95;101799.72;5069833;28;20028;-69
2023/12/14 10:06:02;;;;;;;3.33;1.40;;;;;;;18.73;44.35;101819.47;5066931;28;20115;-68
2023/12/14 10:08:27;;;;;;;4.47;1.60;;;;;;;18.64;44.06;101811.25;5064587;28;20032;-69
2023/12/14 10:10:55;;;;;;;2.97;1.42;;;;;;;18.63;44.10;101819.25;5066615;28;20024;-68
2023/12/14 10:13:35;;;;;;;4.78;1.42;;;;;;;18.71;44.31;101824.00;5065782;28;20033;-69
2023/12/14 10:16:00;;;;;;;4.53;1.90;;;;;;;18.71;44.22;101832.78;5065217;28;20040;-70
2023/12/14 10:18:26;;;;;;;3.40;1.42;;;;;;;18.68;43.91;101843.56;5065404;28;20043;-69
2023/12/14 10:20:52;;;;;;;3.05;1.40;;;;;;;18.65;43.99;101822.63;5065343;28;20036;-69
2023/12/14 10:23:17;;;;;;;3.85;1.38;;;;;;;18.70;43.97;101844.28;5066393;28;20090;-70
2023/12/14 10:25:43;;;;;;;4.40;1.60;;;;;;;18.70;44.01;101833.72;5065499;28;20036;-68
2023/12/14 10:28:12;;;;;;;3.05;1.38;;;;;;;18.68;43.95;101851.47;5066432;28;20396;-68
2023/12/14 10:30:37;;;;;;;4.30;1.27;;;;;;;18.62;43.88;101831.59;5079778;28;20065;-70
2023/12/14 10:33:03;;;;;;;3.30;1.23;;;;;;;18.68;43.94;101854.13;5070016;28;20101;-68
2023/12/14 10:35:28;;;;;;;3.30;1.27;;;;;;;18.68;44.04;101854.13;5084645;28;20265;-70
2023/12/14 10:37:55;;;;;;;3.90;1.30;;;;;;;18.68;43.87;101846.19;5062812;28;20131;-69
2023/12/14 10:40:23;;;;;;;3.47;1.38;;;;;;;18.66;44.16;101848.09;5072818;28;20755;-69
2023/12/14 10:42:50;;;;;;;4.65;1.70;;;;;;;18.70;44.09;101851.38;5068640;28;20141;-69
2023/12/14 10:45:18;;;;;;;2.83;1.30;;;;;;;18.73;43.91;101857.28;5065042;28;20055;-68
2023/12/14 10:47:45;;;;;;;3.25;1.33;;;;;;;18.73;44.20;101859.09;5076155;28;20604;-69
2023/12/14 10:50:11;;;;;;;3.03;1.10;;;;;;;18.73;44.04;101862.56;5085460;28;21374;-69
2023/12/14 10:52:39;;;;;;;5.53;1.40;;;;;;;18.73;43.84;101859.09;5086261;28;20035;-69
2023/12/14 10:55:07;;;;;;;4.30;1.45;;;;;;;18.69;43.59;101858.41;5084997;28;20044;-69
2023/12/14 10:57:34;;;;;;;3.63;1.40;;;;;;;18.70;43.66;101868.03;5086358;28;20502;-70
2023/12/14 11:00:00;;;;;;;2.88;1.20;;;;;;;18.74;43.64;101884.53;5086273;28;20032;-69
2023/12/14 11:02:26;;;;;;;3.38;1.00;;;;;;;18.70;43.42;101873.31;5084689;28;20036;-69
2023/12/14 11:04:59;;;;;;;4.20;1.42;;;;;;;18.70;43.51;101869.84;5086120;28;20047;-69
2023/12/14 11:07:43;;;;;;;2.90;1.30;;;;;;;18.72;43.39;101876.69;5067495;28;20104;-70
2023/12/14 11:10:09;;;;;;;4.03;1.50;;;;;;;18.71;43.18;101880.31;5085445;28;20032;-69
2023/12/14 11:12:37;;;;;;;4.28;1.30;;;;;;;18.62;43.41;101855.34;5085662;28;20074;-69
2023/12/14 11:15:04;;;;;;;3.35;1.20;;;;;;;18.73;43.59;101877.56;5086132;28;20043;-69
2023/12/14 11:17:30;;;;;;;2.55;1.15;;;;;;;18.64;43.38;101868.47;5086450;28;20035;-72